sensor_id;sensor_type;location;lat;lon;timestamp;pressure;altitude;pressure_sealevel;temperature
34310;BMP280;61664;48.112;11.662;2023-04-03T00:01:02;95984.03;;;7.49
34310;BMP280;61664;48.112;11.662;2023-04-03T00:03:29;95990.75;;;7.54
34310;BMP280;61664;48.112;11.662;2023-04-03T00:05:56;95984.44;;;7.48
34310;BMP280;61664;48.112;11.662;2023-04-03T00:08:23;95992.84;;;7.46
34310;BMP280;61664;48.112;11.662;2023-04-03T00:10:51;95994.31;;;7.47
34310;BMP280;61664;48.112;11.662;2023-04-03T00:13:18;95987.50;;;7.46
34310;BMP280;61664;48.112;11.662;2023-04-03T00:15:45;95984.84;;;7.46
34310;BMP280;61664;48.112;11.662;2023-04-03T00:18:12;95989.28;;;7.53
34310;BMP280;61664;48.112;11.662;2023-04-03T00:20:39;95997.25;;;7.53
34310;BMP280;61664;48.112;11.662;2023-04-03T00:23:06;95995.00;;;7.51
34310;BMP280;61664;48.112;11.662;2023-04-03T00:25:33;95980.41;;;7.43
34310;BMP280;61664;48.112;11.662;2023-04-03T00:28:01;95998.81;;;7.50
34310;BMP280;61664;48.112;11.662;2023-04-03T00:30:28;95985.03;;;7.39
34310;BMP280;61664;48.112;11.662;2023-04-03T00:32:55;95992.53;;;7.44
34310;BMP280;61664;48.112;11.662;2023-04-03T00:35:24;95989.88;;;7.44
34310;BMP280;61664;48.112;11.662;2023-04-03T00:37:53;95985.88;;;7.36
34310;BMP280;61664;48.112;11.662;2023-04-03T00:40:23;95993.44;;;7.38
34310;BMP280;61664;48.112;11.662;2023-04-03T00:42:56;95989.72;;;7.35
34310;BMP280;61664;48.112;11.662;2023-04-03T00:45:37;95983.41;;;7.29
34310;BMP280;61664;48.112;11.662;2023-04-03T00:48:08;95996.34;;;7.43
34310;BMP280;61664;48.112;11.662;2023-04-03T00:50:40;95990.63;;;7.45
34310;BMP280;61664;48.112;11.662;2023-04-03T00:53:20;95987.22;;;7.44
34310;BMP280;61664;48.112;11.662;2023-04-03T00:55:49;95985.59;;;7.47
34310;BMP280;61664;48.112;11.662;2023-04-03T00:58:21;95986.16;;;7.42
34310;BMP280;61664;48.112;11.662;2023-04-03T01:00:57;95979.72;;;7.39
34310;BMP280;61664;48.112;11.662;2023-04-03T01:03:24;95978.97;;;7.39
34310;BMP280;61664;48.112;11.662;2023-04-03T01:05:51;95992.41;;;7.48
34310;BMP280;61664;48.112;11.662;2023-04-03T01:08:18;95989.56;;;7.42
34310;BMP280;61664;48.112;11.662;2023-04-03T01:10:45;95995.81;;;7.48
34310;BMP280;61664;48.112;11.662;2023-04-03T01:13:25;95996.16;;;7.50
34310;BMP280;61664;48.112;11.662;2023-04-03T01:15:53;95988.06;;;7.41
34310;BMP280;61664;48.112;11.662;2023-04-03T01:18:23;95992.38;;;7.35
34310;BMP280;61664;48.112;11.662;2023-04-03T01:24:36;95995.53;;;7.30
34310;BMP280;61664;48.112;11.662;2023-04-03T01:27:08;95999.72;;;7.31
34310;BMP280;61664;48.112;11.662;2023-04-03T01:29:36;95996.69;;;7.29
34310;BMP280;61664;48.112;11.662;2023-04-03T01:32:04;96001.94;;;7.33
34310;BMP280;61664;48.112;11.662;2023-04-03T01:34:31;95997.38;;;7.33
34310;BMP280;61664;48.112;11.662;2023-04-03T01:36:58;95998.09;;;7.34
34310;BMP280;61664;48.112;11.662;2023-04-03T01:39:25;96003.00;;;7.35
34310;BMP280;61664;48.112;11.662;2023-04-03T01:41:52;95998.09;;;7.34
34310;BMP280;61664;48.112;11.662;2023-04-03T01:44:19;95996.69;;;7.29
34310;BMP280;61664;48.112;11.662;2023-04-03T01:46:46;96002.69;;;7.33
34310;BMP280;61664;48.112;11.662;2023-04-03T01:49:13;95999.59;;;7.35
34310;BMP280;61664;48.112;11.662;2023-04-03T01:51:40;96003.22;;;7.41
34310;BMP280;61664;48.112;11.662;2023-04-03T01:54:07;95994.94;;;7.39
34310;BMP280;61664;48.112;11.662;2023-04-03T01:56:34;95997.41;;;7.46
34310;BMP280;61664;48.112;11.662;2023-04-03T01:59:00;95992.22;;;7.42
34310;BMP280;61664;48.112;11.662;2023-04-03T02:01:27;96003.16;;;7.44
34310;BMP280;61664;48.112;11.662;2023-04-03T02:03:54;95997.16;;;7.40
34310;BMP280;61664;48.112;11.662;2023-04-03T02:06:21;95996.34;;;7.43
34310;BMP280;61664;48.112;11.662;2023-04-03T02:08:48;95990.19;;;7.46
34310;BMP280;61664;48.112;11.662;2023-04-03T02:11:15;95995.94;;;7.45
34310;BMP280;61664;48.112;11.662;2023-04-03T02:13:42;95984.22;;;7.42
34310;BMP280;61664;48.112;11.662;2023-04-03T02:16:10;96001.47;;;7.50
34310;BMP280;61664;48.112;11.662;2023-04-03T02:18:38;95998.81;;;7.50
34310;BMP280;61664;48.112;11.662;2023-04-03T02:21:05;95996.16;;;7.50
34310;BMP280;61664;48.112;11.662;2023-04-03T02:23:35;95991.38;;;7.45
34310;BMP280;61664;48.112;11.662;2023-04-03T02:26:12;95990.81;;;7.50
34310;BMP280;61664;48.112;11.662;2023-04-03T02:28:40;95996.50;;;7.52
34310;BMP280;61664;48.112;11.662;2023-04-03T02:31:09;95992.34;;;7.51
34310;BMP280;61664;48.112;11.662;2023-04-03T02:33:37;95990.75;;;7.54
34310;BMP280;61664;48.112;11.662;2023-04-03T02:36:07;95990.03;;;7.53
34310;BMP280;61664;48.112;11.662;2023-04-03T02:38:34;95991.84;;;7.56
34310;BMP280;61664;48.112;11.662;2023-04-03T02:41:04;95993.75;;;7.56
34310;BMP280;61664;48.112;11.662;2023-04-03T02:43:32;95987.38;;;7.53
34310;BMP280;61664;48.112;11.662;2023-04-03T02:45:59;95990.66;;;7.57
34310;BMP280;61664;48.112;11.662;2023-04-03T02:48:26;96002.47;;;7.56
34310;BMP280;61664;48.112;11.662;2023-04-03T02:50:53;95995.97;;;7.57
34310;BMP280;61664;48.112;11.662;2023-04-03T02:53:20;95990.75;;;7.54
34310;BMP280;61664;48.112;11.662;2023-04-03T02:55:47;96000.13;;;7.58
34310;BMP280;61664;48.112;11.662;2023-04-03T02:58:15;95996.41;;;7.56
34310;BMP280;61664;48.112;11.662;2023-04-03T03:00:42;96002.78;;;7.58
34310;BMP280;61664;48.112;11.662;2023-04-03T03:03:09;95995.22;;;7.57
34310;BMP280;61664;48.112;11.662;2023-04-03T03:05:36;95990.03;;;7.53
34310;BMP280;61664;48.112;11.662;2023-04-03T03:08:02;95995.22;;;7.57
34310;BMP280;61664;48.112;11.662;2023-04-03T03:10:29;95992.25;;;7.55
34310;BMP280;61664;48.112;11.662;2023-04-03T03:12:57;95990.03;;;7.53
34310;BMP280;61664;48.112;11.662;2023-04-03T03:15:23;96002.78;;;7.58
34310;BMP280;61664;48.112;11.662;2023-04-03T03:17:50;95997.16;;;7.56
34310;BMP280;61664;48.112;11.662;2023-04-03T03:20:17;96002.78;;;7.58
34310;BMP280;61664;48.112;11.662;2023-04-03T03:22:44;96006.44;;;7.65
34310;BMP280;61664;48.112;11.662;2023-04-03T03:25:11;96000.38;;;7.64
34310;BMP280;61664;48.112;11.662;2023-04-03T03:27:38;96003.78;;;7.65
34310;BMP280;61664;48.112;11.662;2023-04-03T03:30:06;95997.03;;;7.60
34310;BMP280;61664;48.112;11.662;2023-04-03T03:32:33;96000.06;;;7.62
34310;BMP280;61664;48.112;11.662;2023-04-03T03:35:00;95996.66;;;7.62
34310;BMP280;61664;48.112;11.662;2023-04-03T03:37:27;95998.47;;;7.65
34310;BMP280;61664;48.112;11.662;2023-04-03T03:39:54;95994.00;;;7.62
34310;BMP280;61664;48.112;11.662;2023-04-03T03:42:21;95991.31;;;7.62
34310;BMP280;61664;48.112;11.662;2023-04-03T03:44:48;95992.13;;;7.58
34310;BMP280;61664;48.112;11.662;2023-04-03T03:47:15;95997.44;;;7.58
34310;BMP280;61664;48.112;11.662;2023-04-03T03:49:42;95996.09;;;7.54
34310;BMP280;61664;48.112;11.662;2023-04-03T03:52:10;95990.03;;;7.53
34310;BMP280;61664;48.112;11.662;2023-04-03T03:54:37;96008.22;;;7.55
34310;BMP280;61664;48.112;11.662;2023-04-03T03:57:04;96006.72;;;7.54
34310;BMP280;61664;48.112;11.662;2023-04-03T03:59:31;95996.25;;;7.47
34310;BMP280;61664;48.112;11.662;2023-04-03T04:01:58;95996.25;;;7.47
34310;BMP280;61664;48.112;11.662;2023-04-03T04:04:25;95998.06;;;7.50
34310;BMP280;61664;48.112;11.662;2023-04-03T04:06:52;95987.84;;;7.48
34310;BMP280;61664;48.112;11.662;2023-04-03T04:09:19;95996.94;;;7.51
34310;BMP280;61664;48.112;11.662;2023-04-03T04:11:46;95993.16;;;7.48
34310;BMP280;61664;48.112;11.662;2023-04-03T04:14:13;95985.72;;;7.43
34310;BMP280;61664;48.112;11.662;2023-04-03T04:16:40;95987.22;;;7.44
34310;BMP280;61664;48.112;11.662;2023-04-03T04:19:07;95998.47;;;7.48
34310;BMP280;61664;48.112;11.662;2023-04-03T04:21:34;95997.66;;;7.51
34310;BMP280;61664;48.112;11.662;2023-04-03T04:24:02;95999.91;;;7.53
34310;BMP280;61664;48.112;11.662;2023-04-03T04:26:29;95995.75;;;7.52
34310;BMP280;61664;48.112;11.662;2023-04-03T04:28:56;96006.31;;;7.55
34310;BMP280;61664;48.112;11.662;2023-04-03T04:31:22;95995.41;;;7.50
34310;BMP280;61664;48.112;11.662;2023-04-03T04:33:49;96001.81;;;7.52
34310;BMP280;61664;48.112;11.662;2023-04-03T04:36:16;96004.81;;;7.54
34310;BMP280;61664;48.112;11.662;2023-04-03T04:38:44;96007.13;;;7.52
34310;BMP280;61664;48.112;11.662;2023-04-03T04:41:11;95999.91;;;7.53
34310;BMP280;61664;48.112;11.662;2023-04-03T04:43:38;95997.56;;;7.55
34310;BMP280;61664;48.112;11.662;2023-04-03T04:46:09;96007.78;;;7.56
34310;BMP280;61664;48.112;11.662;2023-04-03T04:48:39;96005.22;;;7.53
34310;BMP280;61664;48.112;11.662;2023-04-03T04:51:07;96008.31;;;7.51
34310;BMP280;61664;48.112;11.662;2023-04-03T04:53:34;96001.13;;;7.48
34310;BMP280;61664;48.112;11.662;2023-04-03T04:56:02;96011.63;;;7.55
34310;BMP280;61664;48.112;11.662;2023-04-03T04:58:29;96016.94;;;7.55
34310;BMP280;61664;48.112;11.662;2023-04-03T05:01:05;96003.81;;;7.48
34310;BMP280;61664;48.112;11.662;2023-04-03T05:03:33;96012.47;;;7.52
34310;BMP280;61664;48.112;11.662;2023-04-03T05:06:00;96013.94;;;7.53
34310;BMP280;61664;48.112;11.662;2023-04-03T05:08:27;96009.44;;;7.50
34310;BMP280;61664;48.112;11.662;2023-04-03T05:10:54;96009.97;;;7.45
34310;BMP280;61664;48.112;11.662;2023-04-03T05:13:22;96019.00;;;7.48
34310;BMP280;61664;48.112;11.662;2023-04-03T05:15:49;96011.91;;;7.45
34310;BMP280;61664;48.112;11.662;2023-04-03T05:18:16;96021.59;;;7.51
34310;BMP280;61664;48.112;11.662;2023-04-03T05:20:43;96014.56;;;7.45
34310;BMP280;61664;48.112;11.662;2023-04-03T05:23:10;96009.31;;;7.41
34310;BMP280;61664;48.112;11.662;2023-04-03T05:25:38;96011.63;;;7.39
34310;BMP280;61664;48.112;11.662;2023-04-03T05:28:06;96026.66;;;7.46
34310;BMP280;61664;48.112;11.662;2023-04-03T05:30:34;96031.97;;;7.46
34310;BMP280;61664;48.112;11.662;2023-04-03T05:33:01;96015.78;;;7.40
34310;BMP280;61664;48.112;11.662;2023-04-03T05:35:29;96014.69;;;7.38
34310;BMP280;61664;48.112;11.662;2023-04-03T05:37:56;96022.94;;;7.43
34310;BMP280;61664;48.112;11.662;2023-04-03T05:40:23;96022.53;;;7.45
34310;BMP280;61664;48.112;11.662;2023-04-03T05:42:50;96024.44;;;7.44
34310;BMP280;61664;48.112;11.662;2023-04-03T05:45:17;96023.91;;;7.49
34310;BMP280;61664;48.112;11.662;2023-04-03T05:47:44;96024.25;;;7.51
34310;BMP280;61664;48.112;11.662;2023-04-03T05:50:11;96026.41;;;7.56
34310;BMP280;61664;48.112;11.662;2023-04-03T05:52:43;96028.00;;;7.54
34310;BMP280;61664;48.112;11.662;2023-04-03T05:55:11;96016.28;;;7.51
34310;BMP280;61664;48.112;11.662;2023-04-03T05:57:37;96027.03;;;7.60
34310;BMP280;61664;48.112;11.662;2023-04-03T06:00:07;96028.56;;;7.62
34310;BMP280;61664;48.112;11.662;2023-04-03T06:02:36;96031.53;;;7.64
34310;BMP280;61664;48.112;11.662;2023-04-03T06:05:03;96023.63;;;7.60
34310;BMP280;61664;48.112;11.662;2023-04-03T06:07:30;96048.06;;;7.71
34310;BMP280;61664;48.112;11.662;2023-04-03T06:09:57;96041.91;;;7.74
34310;BMP280;61664;48.112;11.662;2023-04-03T06:12:24;96039.44;;;7.80
34310;BMP280;61664;48.112;11.662;2023-04-03T06:14:51;96043.63;;;7.81
34310;BMP280;61664;48.112;11.662;2023-04-03T06:17:18;96043.97;;;7.83
34310;BMP280;61664;48.112;11.662;2023-04-03T06:19:46;96031.16;;;7.78
34310;BMP280;61664;48.112;11.662;2023-04-03T06:22:13;96046.94;;;7.85
34310;BMP280;61664;48.112;11.662;2023-04-03T06:24:40;96051.84;;;7.86
34310;BMP280;61664;48.112;11.662;2023-04-03T06:27:08;96051.41;;;7.88
34310;BMP280;61664;48.112;11.662;2023-04-03T06:29:36;96046.44;;;7.90
34310;BMP280;61664;48.112;11.662;2023-04-03T06:32:03;96056.47;;;7.99
34310;BMP280;61664;48.112;11.662;2023-04-03T06:34:30;96054.34;;;8.06
34310;BMP280;61664;48.112;11.662;2023-04-03T06:36:58;96050.44;;;8.11
34310;BMP280;61664;48.112;11.662;2023-04-03T06:39:24;96052.66;;;8.12
34310;BMP280;61664;48.112;11.662;2023-04-03T06:41:51;96053.88;;;8.11
34310;BMP280;61664;48.112;11.662;2023-04-03T06:44:18;96038.06;;;8.04
34310;BMP280;61664;48.112;11.662;2023-04-03T06:46:46;96046.50;;;8.15
34310;BMP280;61664;48.112;11.662;2023-04-03T06:49:13;96058.16;;;8.21
34310;BMP280;61664;48.112;11.662;2023-04-03T06:51:40;96055.25;;;8.29
34310;BMP280;61664;48.112;11.662;2023-04-03T06:54:07;96058.47;;;8.36
34310;BMP280;61664;48.112;11.662;2023-04-03T06:56:35;96058.38;;;8.40
34310;BMP280;61664;48.112;11.662;2023-04-03T06:59:03;96064.97;;;8.48
34310;BMP280;61664;48.112;11.662;2023-04-03T07:01:30;96059.03;;;8.56
34310;BMP280;61664;48.112;11.662;2023-04-03T07:03:57;96058.59;;;8.58
34310;BMP280;61664;48.112;11.662;2023-04-03T07:06:25;96071.19;;;8.70
34310;BMP280;61664;48.112;11.662;2023-04-03T07:08:55;96058.09;;;8.63
34310;BMP280;61664;48.112;11.662;2023-04-03T07:11:22;96075.69;;;8.73
34310;BMP280;61664;48.112;11.662;2023-04-03T07:13:50;96067.44;;;8.68
34310;BMP280;61664;48.112;11.662;2023-04-03T07:16:17;96061.50;;;8.64
34310;BMP280;61664;48.112;11.662;2023-04-03T07:18:45;96076.97;;;8.81
34310;BMP280;61664;48.112;11.662;2023-04-03T07:21:13;96069.28;;;8.83
34310;BMP280;61664;48.112;11.662;2023-04-03T07:23:40;96072.81;;;8.93
34310;BMP280;61664;48.112;11.662;2023-04-03T07:26:07;96084.31;;;9.03
34310;BMP280;61664;48.112;11.662;2023-04-03T07:28:34;96079.28;;;9.05
34310;BMP280;61664;48.112;11.662;2023-04-03T07:31:11;96081.28;;;9.13
34310;BMP280;61664;48.112;11.662;2023-04-03T07:33:41;96084.69;;;9.14
34310;BMP280;61664;48.112;11.662;2023-04-03T07:36:10;96081.28;;;9.13
34310;BMP280;61664;48.112;11.662;2023-04-03T07:38:37;96081.00;;;9.11
34310;BMP280;61664;48.112;11.662;2023-04-03T07:41:04;96085.88;;;9.13
34310;BMP280;61664;48.112;11.662;2023-04-03T07:43:32;96097.19;;;9.17
34310;BMP280;61664;48.112;11.662;2023-04-03T07:46:00;96101.53;;;9.24
34310;BMP280;61664;48.112;11.662;2023-04-03T07:48:27;96089.84;;;9.21
34310;BMP280;61664;48.112;11.662;2023-04-03T07:51:00;96094.50;;;9.17
34310;BMP280;61664;48.112;11.662;2023-04-03T07:53:28;96108.06;;;9.23
34310;BMP280;61664;48.112;11.662;2023-04-03T07:55:57;96114.97;;;9.20
34310;BMP280;61664;48.112;11.662;2023-04-03T07:58:24;96108.06;;;9.10
34310;BMP280;61664;48.112;11.662;2023-04-03T08:00:52;96114.78;;;9.14
34310;BMP280;61664;48.112;11.662;2023-04-03T08:03:19;96111.91;;;9.09
34310;BMP280;61664;48.112;11.662;2023-04-03T08:05:48;96116.59;;;9.05
34310;BMP280;61664;48.112;11.662;2023-04-03T08:08:19;96118.22;;;9.02
34310;BMP280;61664;48.112;11.662;2023-04-03T08:10:53;96109.06;;;9.03
34310;BMP280;61664;48.112;11.662;2023-04-03T08:13:21;96119.78;;;9.00
34310;BMP280;61664;48.112;11.662;2023-04-03T08:15:49;96124.47;;;8.96
34310;BMP280;61664;48.112;11.662;2023-04-03T08:18:16;96113.94;;;8.92
34310;BMP280;61664;48.112;11.662;2023-04-03T08:20:43;96108.38;;;8.86
34310;BMP280;61664;48.112;11.662;2023-04-03T08:23:11;96109.97;;;8.97
34310;BMP280;61664;48.112;11.662;2023-04-03T08:25:42;96114.56;;;9.09
34310;BMP280;61664;48.112;11.662;2023-04-03T08:28:11;96115.19;;;9.13
34310;BMP280;61664;48.112;11.662;2023-04-03T08:30:42;96105.81;;;9.08
34310;BMP280;61664;48.112;11.662;2023-04-03T08:33:10;96114.47;;;9.12
34310;BMP280;61664;48.112;11.662;2023-04-03T08:35:40;96112.22;;;9.24
34310;BMP280;61664;48.112;11.662;2023-04-03T08:38:09;96110.94;;;9.28
34310;BMP280;61664;48.112;11.662;2023-04-03T08:40:37;96112.50;;;9.38
34310;BMP280;61664;48.112;11.662;2023-04-03T08:43:41;96119.72;;;9.50
34310;BMP280;61664;48.112;11.662;2023-04-03T08:46:16;96114.19;;;9.58
34310;BMP280;61664;48.112;11.662;2023-04-03T08:48:46;96120.78;;;9.66
34310;BMP280;61664;48.112;11.662;2023-04-03T08:51:20;96123.84;;;9.77
34310;BMP280;61664;48.112;11.662;2023-04-03T08:56:48;96112.94;;;9.84
34310;BMP280;61664;48.112;11.662;2023-04-03T08:59:26;96120.34;;;10.02
34310;BMP280;61664;48.112;11.662;2023-04-03T09:01:56;96125.41;;;10.09
34310;BMP280;61664;48.112;11.662;2023-04-03T09:04:26;96121.63;;;10.19
34310;BMP280;61664;48.112;11.662;2023-04-03T09:07:02;96126.91;;;10.32
34310;BMP280;61664;48.112;11.662;2023-04-03T09:09:38;96127.38;;;10.39
34310;BMP280;61664;48.112;11.662;2023-04-03T09:12:28;96125.84;;;10.51
34310;BMP280;61664;48.112;11.662;2023-04-03T09:15:20;96126.06;;;10.66
34310;BMP280;61664;48.112;11.662;2023-04-03T09:18:15;96127.16;;;10.77
34310;BMP280;61664;48.112;11.662;2023-04-03T09:21:00;96124.81;;;10.88
34310;BMP280;61664;48.112;11.662;2023-04-03T09:23:53;96130.94;;;10.98
34310;BMP280;61664;48.112;11.662;2023-04-03T09:26:29;96117.44;;;11.02
34310;BMP280;61664;48.112;11.662;2023-04-03T09:29:02;96129.00;;;10.99
34310;BMP280;61664;48.112;11.662;2023-04-03T09:31:37;96121.69;;;10.90
34310;BMP280;61664;48.112;11.662;2023-04-03T09:34:20;96113.66;;;10.81
34310;BMP280;61664;48.112;11.662;2023-04-03T09:36:52;96119.75;;;10.81
34310;BMP280;61664;48.112;11.662;2023-04-03T09:39:27;96113.97;;;10.83
34310;BMP280;61664;48.112;11.662;2023-04-03T09:42:02;96125.09;;;10.81
34310;BMP280;61664;48.112;11.662;2023-04-03T09:44:36;96111.69;;;10.72
34310;BMP280;61664;48.112;11.662;2023-04-03T09:47:29;96120.00;;;10.74
34310;BMP280;61664;48.112;11.662;2023-04-03T09:50:20;96114.03;;;10.70
34310;BMP280;61664;48.112;11.662;2023-04-03T09:52:49;96123.38;;;10.66
34310;BMP280;61664;48.112;11.662;2023-04-03T09:55:27;96107.16;;;10.60
34310;BMP280;61664;48.112;11.662;2023-04-03T09:58:00;96116.94;;;10.54
34310;BMP280;61664;48.112;11.662;2023-04-03T10:00:36;96123.03;;;10.54
34310;BMP280;61664;48.112;11.662;2023-04-03T10:03:08;96120.22;;;10.58
34310;BMP280;61664;48.112;11.662;2023-04-03T10:05:48;96117.56;;;10.58
34310;BMP280;61664;48.112;11.662;2023-04-03T10:11:18;96121.16;;;10.64
34310;BMP280;61664;48.112;11.662;2023-04-03T10:14:00;96122.06;;;10.61
34310;BMP280;61664;48.112;11.662;2023-04-03T10:16:48;96125.19;;;10.69
34310;BMP280;61664;48.112;11.662;2023-04-03T10:19:39;96120.00;;;10.74
34310;BMP280;61664;48.112;11.662;2023-04-03T10:28:19;96119.25;;;11.14
34310;BMP280;61664;48.112;11.662;2023-04-03T10:31:15;96113.94;;;11.23
34310;BMP280;61664;48.112;11.662;2023-04-03T10:34:20;96108.16;;;11.25
34310;BMP280;61664;48.112;11.662;2023-04-03T10:37:26;96120.78;;;11.33
34310;BMP280;61664;48.112;11.662;2023-04-03T10:40:24;96129.25;;;11.23
34310;BMP280;61664;48.112;11.662;2023-04-03T10:46:19;96128.34;;;10.76
34310;BMP280;61664;48.112;11.662;2023-04-03T10:57:40;96124.31;;;10.41
34310;BMP280;61664;48.112;11.662;2023-04-03T11:00:19;96119.22;;;10.34
34310;BMP280;61664;48.112;11.662;2023-04-03T11:03:00;96125.53;;;10.27
34310;BMP280;61664;48.112;11.662;2023-04-03T11:05:50;96110.31;;;10.15
34310;BMP280;61664;48.112;11.662;2023-04-03T11:11:00;96114.31;;;10.10
34310;BMP280;61664;48.112;11.662;2023-04-03T11:13:43;96126.16;;;10.09
34310;BMP280;61664;48.112;11.662;2023-04-03T11:16:21;96108.91;;;10.01
34310;BMP280;61664;48.112;11.662;2023-04-03T11:19:17;96107.94;;;9.95
34310;BMP280;61664;48.112;11.662;2023-04-03T11:21:57;96098.41;;;9.85
34310;BMP280;61664;48.112;11.662;2023-04-03T11:24:32;96102.53;;;9.86
34310;BMP280;61664;48.112;11.662;2023-04-03T11:27:02;96114.84;;;9.83
34310;BMP280;61664;48.112;11.662;2023-04-03T11:29:36;96116.47;;;9.81
34310;BMP280;61664;48.112;11.662;2023-04-03T11:34:56;96116.78;;;9.83
34310;BMP280;61664;48.112;11.662;2023-04-03T11:37:38;96111.00;;;9.84
34310;BMP280;61664;48.112;11.662;2023-04-03T11:40:34;96108.63;;;9.86
34310;BMP280;61664;48.112;11.662;2023-04-03T11:43:22;96098.41;;;9.85
34310;BMP280;61664;48.112;11.662;2023-04-03T11:45:56;96100.19;;;9.88
34310;BMP280;61664;48.112;11.662;2023-04-03T11:50:56;96101.81;;;9.85
34310;BMP280;61664;48.112;11.662;2023-04-03T11:53:37;96103.44;;;9.83
34310;BMP280;61664;48.112;11.662;2023-04-03T12:01:55;96095.34;;;9.96
34310;BMP280;61664;48.112;11.662;2023-04-03T12:04:26;96088.03;;;10.09
34310;BMP280;61664;48.112;11.662;2023-04-03T12:07:18;96090.03;;;10.17
34310;BMP280;61664;48.112;11.662;2023-04-03T12:12:57;96088.84;;;10.18
34310;BMP280;61664;48.112;11.662;2023-04-03T12:18:53;96082.63;;;10.22
34310;BMP280;61664;48.112;11.662;2023-04-03T12:30:04;96073.00;;;10.55
34310;BMP280;61664;48.112;11.662;2023-04-03T12:32:49;96067.69;;;10.64
34310;BMP280;61664;48.112;11.662;2023-04-03T12:36:02;96075.19;;;10.87
34310;BMP280;61664;48.112;11.662;2023-04-03T12:41:57;96077.06;;;11.27
34310;BMP280;61664;48.112;11.662;2023-04-03T12:47:43;96044.97;;;11.91
34310;BMP280;61664;48.112;11.662;2023-04-03T12:50:33;96055.00;;;12.23
34310;BMP280;61664;48.112;11.662;2023-04-03T12:56:18;96061.38;;;12.68
34310;BMP280;61664;48.112;11.662;2023-04-03T12:58:45;96047.91;;;12.77
34310;BMP280;61664;48.112;11.662;2023-04-03T13:01:16;96056.41;;;13.00
34310;BMP280;61664;48.112;11.662;2023-04-03T13:03:48;96055.78;;;13.05
34310;BMP280;61664;48.112;11.662;2023-04-03T13:06:32;96061.41;;;13.16
34310;BMP280;61664;48.112;11.662;2023-04-03T13:09:01;96052.19;;;13.32
34310;BMP280;61664;48.112;11.662;2023-04-03T13:11:36;96048.16;;;13.51
34310;BMP280;61664;48.112;11.662;2023-04-03T13:14:27;96053.38;;;13.84
34310;BMP280;61664;48.112;11.662;2023-04-03T13:17:20;96036.88;;;14.06
34310;BMP280;61664;48.112;11.662;2023-04-03T13:19:47;96041.19;;;14.18
34310;BMP280;61664;48.112;11.662;2023-04-03T13:22:35;96045.75;;;14.26
34310;BMP280;61664;48.112;11.662;2023-04-03T13:25:11;96028.56;;;14.39
34310;BMP280;61664;48.112;11.662;2023-04-03T13:27:40;96041.78;;;14.57
34310;BMP280;61664;48.112;11.662;2023-04-03T13:30:39;96036.44;;;14.77
34310;BMP280;61664;48.112;11.662;2023-04-03T13:33:28;96036.28;;;14.86
34310;BMP280;61664;48.112;11.662;2023-04-03T13:36:16;96030.38;;;15.23
34310;BMP280;61664;48.112;11.662;2023-04-03T13:38:44;96029.59;;;16.00
34310;BMP280;61664;48.112;11.662;2023-04-03T13:42:16;96034.78;;;16.46
34310;BMP280;61664;48.112;11.662;2023-04-03T13:44:43;96026.94;;;16.42
34310;BMP280;61664;48.112;11.662;2023-04-03T13:47:17;96027.31;;;16.24
34310;BMP280;61664;48.112;11.662;2023-04-03T13:52:51;96042.81;;;15.46
34310;BMP280;61664;48.112;11.662;2023-04-03T13:58:33;96033.44;;;14.55
34310;BMP280;61664;48.112;11.662;2023-04-03T14:01:11;96039.91;;;14.28
34310;BMP280;61664;48.112;11.662;2023-04-03T14:04:09;96036.13;;;13.90
34310;BMP280;61664;48.112;11.662;2023-04-03T14:06:37;96032.59;;;13.70
34310;BMP280;61664;48.112;11.662;2023-04-03T14:09:04;96037.41;;;13.51
34310;BMP280;61664;48.112;11.662;2023-04-03T14:11:31;96028.22;;;13.28
34310;BMP280;61664;48.112;11.662;2023-04-03T14:14:09;96040.94;;;13.18
34310;BMP280;61664;48.112;11.662;2023-04-03T14:16:44;96029.38;;;13.12
34310;BMP280;61664;48.112;11.662;2023-04-03T14:21:49;96023.06;;;13.01
34310;BMP280;61664;48.112;11.662;2023-04-03T14:24:18;96031.41;;;13.03
34310;BMP280;61664;48.112;11.662;2023-04-03T14:26:46;96032.50;;;13.11
34310;BMP280;61664;48.112;11.662;2023-04-03T14:29:14;96022.59;;;13.17
34310;BMP280;61664;48.112;11.662;2023-04-03T14:31:43;96013.31;;;13.27
34310;BMP280;61664;48.112;11.662;2023-04-03T14:34:13;96019.91;;;13.55
34310;BMP280;61664;48.112;11.662;2023-04-03T14:36:41;96022.81;;;13.81
34310;BMP280;61664;48.112;11.662;2023-04-03T14:39:18;96018.78;;;14.06
34310;BMP280;61664;48.112;11.662;2023-04-03T14:41:46;96010.59;;;14.85
34310;BMP280;61664;48.112;11.662;2023-04-03T14:44:13;96013.31;;;15.83
34310;BMP280;61664;48.112;11.662;2023-04-03T14:46:43;96014.84;;;16.27
34310;BMP280;61664;48.112;11.662;2023-04-03T14:49:27;96012.56;;;16.62
34310;BMP280;61664;48.112;11.662;2023-04-03T14:51:58;96003.56;;;16.82
34310;BMP280;61664;48.112;11.662;2023-04-03T14:54:26;96017.06;;;16.82
34310;BMP280;61664;48.112;11.662;2023-04-03T14:56:57;96004.22;;;16.66
34310;BMP280;61664;48.112;11.662;2023-04-03T14:59:25;96015.28;;;16.68
34310;BMP280;61664;48.112;11.662;2023-04-03T15:01:53;96008.13;;;16.59
34310;BMP280;61664;48.112;11.662;2023-04-03T15:04:20;96012.69;;;16.96
34310;BMP280;61664;48.112;11.662;2023-04-03T15:06:49;96016.75;;;17.89
34310;BMP280;61664;48.112;11.662;2023-04-03T15:09:26;96003.47;;;19.83
34310;BMP280;61664;48.112;11.662;2023-04-03T15:11:54;96003.34;;;20.81
34310;BMP280;61664;48.112;11.662;2023-04-03T15:14:22;96015.25;;;20.78
34310;BMP280;61664;48.112;11.662;2023-04-03T15:17:06;96012.66;;;19.99
34310;BMP280;61664;48.112;11.662;2023-04-03T15:19:38;96010.38;;;19.19
34310;BMP280;61664;48.112;11.662;2023-04-03T15:22:05;96019.34;;;18.45
34310;BMP280;61664;48.112;11.662;2023-04-03T15:24:32;96018.94;;;17.85
34310;BMP280;61664;48.112;11.662;2023-04-03T15:27:00;96030.00;;;17.48
34310;BMP280;61664;48.112;11.662;2023-04-03T15:29:28;96023.88;;;18.04
34310;BMP280;61664;48.112;11.662;2023-04-03T15:31:55;96017.00;;;19.24
34310;BMP280;61664;48.112;11.662;2023-04-03T15:34:22;96008.78;;;20.62
34310;BMP280;61664;48.112;11.662;2023-04-03T15:36:50;96000.75;;;21.84
34310;BMP280;61664;48.112;11.662;2023-04-03T15:39:20;96014.25;;;22.89
34310;BMP280;61664;48.112;11.662;2023-04-03T15:41:47;96005.31;;;23.72
34310;BMP280;61664;48.112;11.662;2023-04-03T15:44:15;96014.78;;;24.43